sensor_id;sensor_type;location;lat;lon;timestamp;P1;durP1;ratioP1;P2;durP2;ratioP2
17171;SDS011;8701;50.150;8.756;2022-07-24T00:01:29;4.23;;;3.83;;
17171;SDS011;8701;50.150;8.756;2022-07-24T00:05:32;5.63;;;3.67;;
17171;SDS011;8701;50.150;8.756;2022-07-24T00:09:36;6.30;;;3.53;;
17171;SDS011;8701;50.150;8.756;2022-07-24T00:13:38;6.93;;;3.83;;
17171;SDS011;8701;50.150;8.756;2022-07-24T00:17:41;10.33;;;3.40;;
17171;SDS011;8701;50.150;8.756;2022-07-24T00:21:45;4.17;;;3.43;;
17171;SDS011;8701;50.150;8.756;2022-07-24T00:25:47;4.20;;;3.30;;
17171;SDS011;8701;50.150;8.756;2022-07-24T00:29:50;7.17;;;3.40;;
17171;SDS011;8701;50.150;8.756;2022-07-24T00:33:54;6.07;;;3.97;;
17171;SDS011;8701;50.150;8.756;2022-07-24T00:37:58;4.00;;;3.60;;
17171;SDS011;8701;50.150;8.756;2022-07-24T00:42:00;4.00;;;3.40;;
17171;SDS011;8701;50.150;8.756;2022-07-24T00:46:03;10.00;;;3.80;;
17171;SDS011;8701;50.150;8.756;2022-07-24T00:50:07;7.80;;;3.20;;
17171;SDS011;8701;50.150;8.756;2022-07-24T00:54:11;9.03;;;3.80;;
17171;SDS011;8701;50.150;8.756;2022-07-24T00:58:15;8.93;;;3.20;;
17171;SDS011;8701;50.150;8.756;2022-07-24T01:02:17;6.87;;;3.40;;
17171;SDS011;8701;50.150;8.756;2022-07-24T01:06:21;5.00;;;4.17;;
17171;SDS011;8701;50.150;8.756;2022-07-24T01:10:25;6.77;;;3.50;;
17171;SDS011;8701;50.150;8.756;2022-07-24T01:14:29;6.10;;;4.03;;
17171;SDS011;8701;50.150;8.756;2022-07-24T01:18:34;4.20;;;3.60;;
17171;SDS011;8701;50.150;8.756;2022-07-24T01:22:38;4.73;;;3.47;;
17171;SDS011;8701;50.150;8.756;2022-07-24T01:26:40;6.93;;;3.40;;
17171;SDS011;8701;50.150;8.756;2022-07-24T01:30:43;5.73;;;3.80;;
17171;SDS011;8701;50.150;8.756;2022-07-24T01:34:45;5.10;;;3.50;;
17171;SDS011;8701;50.150;8.756;2022-07-24T01:38:49;5.40;;;3.70;;
17171;SDS011;8701;50.150;8.756;2022-07-24T01:42:51;7.27;;;3.53;;
17171;SDS011;8701;50.150;8.756;2022-07-24T01:46:54;3.90;;;3.50;;
17171;SDS011;8701;50.150;8.756;2022-07-24T01:50:56;4.53;;;3.40;;
17171;SDS011;8701;50.150;8.756;2022-07-24T01:55:00;4.43;;;3.60;;
17171;SDS011;8701;50.150;8.756;2022-07-24T01:59:02;4.40;;;3.60;;
17171;SDS011;8701;50.150;8.756;2022-07-24T02:03:05;2.90;;;2.70;;
17171;SDS011;8701;50.150;8.756;2022-07-24T02:07:07;7.30;;;3.70;;
17171;SDS011;8701;50.150;8.756;2022-07-24T02:11:11;8.30;;;3.80;;
17171;SDS011;8701;50.150;8.756;2022-07-24T02:15:14;4.17;;;3.33;;
17171;SDS011;8701;50.150;8.756;2022-07-24T02:19:16;3.10;;;2.90;;
17171;SDS011;8701;50.150;8.756;2022-07-24T02:23:18;4.00;;;3.37;;
17171;SDS011;8701;50.150;8.756;2022-07-24T02:27:22;4.83;;;3.10;;
17171;SDS011;8701;50.150;8.756;2022-07-24T02:31:24;4.67;;;3.27;;
17171;SDS011;8701;50.150;8.756;2022-07-24T02:35:27;3.53;;;3.23;;
17171;SDS011;8701;50.150;8.756;2022-07-24T02:39:30;5.07;;;3.20;;
17171;SDS011;8701;50.150;8.756;2022-07-24T02:43:34;7.00;;;3.33;;
17171;SDS011;8701;50.150;8.756;2022-07-24T02:47:45;6.20;;;3.53;;
17171;SDS011;8701;50.150;8.756;2022-07-24T02:51:49;5.27;;;3.60;;
17171;SDS011;8701;50.150;8.756;2022-07-24T02:55:51;6.50;;;3.40;;
17171;SDS011;8701;50.150;8.756;2022-07-24T02:59:55;5.43;;;3.40;;
17171;SDS011;8701;50.150;8.756;2022-07-24T03:03:57;3.90;;;3.53;;
17171;SDS011;8701;50.150;8.756;2022-07-24T03:08:00;3.90;;;3.57;;
17171;SDS011;8701;50.150;8.756;2022-07-24T03:12:03;5.63;;;3.63;;
17171;SDS011;8701;50.150;8.756;2022-07-24T03:16:07;6.43;;;3.63;;
17171;SDS011;8701;50.150;8.756;2022-07-24T03:20:10;7.50;;;3.70;;
17171;SDS011;8701;50.150;8.756;2022-07-24T03:24:13;7.20;;;3.90;;
17171;SDS011;8701;50.150;8.756;2022-07-24T03:28:17;5.40;;;3.50;;
17171;SDS011;8701;50.150;8.756;2022-07-24T03:32:21;3.67;;;3.37;;
17171;SDS011;8701;50.150;8.756;2022-07-24T03:36:23;5.57;;;4.03;;
17171;SDS011;8701;50.150;8.756;2022-07-24T03:40:25;5.80;;;3.50;;
17171;SDS011;8701;50.150;8.756;2022-07-24T03:44:28;4.03;;;3.63;;
17171;SDS011;8701;50.150;8.756;2022-07-24T03:48:31;4.63;;;3.97;;
17171;SDS011;8701;50.150;8.756;2022-07-24T03:52:34;4.93;;;3.60;;
17171;SDS011;8701;50.150;8.756;2022-07-24T03:56:36;6.37;;;4.40;;
17171;SDS011;8701;50.150;8.756;2022-07-24T04:00:39;5.87;;;3.93;;
17171;SDS011;8701;50.150;8.756;2022-07-24T04:04:42;5.47;;;3.45;;
17171;SDS011;8701;50.150;8.756;2022-07-24T04:08:45;6.23;;;3.70;;
17171;SDS011;8701;50.150;8.756;2022-07-24T04:12:50;5.93;;;4.10;;
17171;SDS011;8701;50.150;8.756;2022-07-24T04:16:52;4.03;;;3.63;;
17171;SDS011;8701;50.150;8.756;2022-07-24T04:20:56;5.27;;;3.60;;
17171;SDS011;8701;50.150;8.756;2022-07-24T04:24:59;6.13;;;3.90;;
17171;SDS011;8701;50.150;8.756;2022-07-24T04:29:03;4.37;;;3.97;;
17171;SDS011;8701;50.150;8.756;2022-07-24T04:37:38;4.57;;;3.67;;
17171;SDS011;8701;50.150;8.756;2022-07-24T04:41:40;5.07;;;4.00;;
17171;SDS011;8701;50.150;8.756;2022-07-24T04:45:43;7.53;;;4.17;;
17171;SDS011;8701;50.150;8.756;2022-07-24T04:49:45;4.00;;;3.70;;
17171;SDS011;8701;50.150;8.756;2022-07-24T04:53:49;4.00;;;3.60;;
17171;SDS011;8701;50.150;8.756;2022-07-24T04:57:53;5.43;;;3.90;;
17171;SDS011;8701;50.150;8.756;2022-07-24T05:01:55;4.20;;;3.80;;
17171;SDS011;8701;50.150;8.756;2022-07-24T05:05:58;11.60;;;3.90;;
17171;SDS011;8701;50.150;8.756;2022-07-24T05:10:02;5.90;;;4.20;;
17171;SDS011;8701;50.150;8.756;2022-07-24T05:14:05;4.20;;;3.80;;
17171;SDS011;8701;50.150;8.756;2022-07-24T05:18:07;5.83;;;4.40;;
17171;SDS011;8701;50.150;8.756;2022-07-24T05:22:09;5.87;;;3.87;;
17171;SDS011;8701;50.150;8.756;2022-07-24T05:26:13;6.23;;;4.00;;
17171;SDS011;8701;50.150;8.756;2022-07-24T05:30:15;6.20;;;4.30;;
17171;SDS011;8701;50.150;8.756;2022-07-24T05:34:18;4.57;;;3.87;;
17171;SDS011;8701;50.150;8.756;2022-07-24T05:38:22;4.67;;;3.80;;
17171;SDS011;8701;50.150;8.756;2022-07-24T05:42:26;5.22;;;4.10;;
17171;SDS011;8701;50.150;8.756;2022-07-24T05:46:28;5.07;;;4.57;;
17171;SDS011;8701;50.150;8.756;2022-07-24T05:50:31;4.10;;;3.70;;
17171;SDS011;8701;50.150;8.756;2022-07-24T05:54:33;7.50;;;4.07;;
17171;SDS011;8701;50.150;8.756;2022-07-24T05:58:37;8.47;;;3.90;;
17171;SDS011;8701;50.150;8.756;2022-07-24T06:02:39;6.63;;;4.03;;
17171;SDS011;8701;50.150;8.756;2022-07-24T06:06:41;4.60;;;4.10;;
17171;SDS011;8701;50.150;8.756;2022-07-24T06:10:44;6.77;;;3.97;;
17171;SDS011;8701;50.150;8.756;2022-07-24T06:14:48;5.57;;;3.83;;
17171;SDS011;8701;50.150;8.756;2022-07-24T06:18:50;8.10;;;3.73;;
17171;SDS011;8701;50.150;8.756;2022-07-24T06:22:52;4.43;;;3.40;;
17171;SDS011;8701;50.150;8.756;2022-07-24T06:26:55;4.87;;;3.80;;
17171;SDS011;8701;50.150;8.756;2022-07-24T06:30:58;4.93;;;3.87;;
17171;SDS011;8701;50.150;8.756;2022-07-24T06:35:01;6.13;;;3.43;;
17171;SDS011;8701;50.150;8.756;2022-07-24T06:39:03;3.50;;;3.20;;
17171;SDS011;8701;50.150;8.756;2022-07-24T06:43:05;4.53;;;3.53;;
17171;SDS011;8701;50.150;8.756;2022-07-24T06:47:10;5.63;;;3.40;;
17171;SDS011;8701;50.150;8.756;2022-07-24T06:51:14;3.30;;;3.10;;
17171;SDS011;8701;50.150;8.756;2022-07-24T06:55:17;5.50;;;3.80;;
17171;SDS011;8701;50.150;8.756;2022-07-24T06:59:21;4.10;;;3.17;;
17171;SDS011;8701;50.150;8.756;2022-07-24T07:03:25;3.50;;;3.20;;
17171;SDS011;8701;50.150;8.756;2022-07-24T07:07:27;4.80;;;2.90;;
17171;SDS011;8701;50.150;8.756;2022-07-24T07:11:29;8.50;;;3.57;;
17171;SDS011;8701;50.150;8.756;2022-07-24T07:15:32;4.30;;;3.30;;
17171;SDS011;8701;50.150;8.756;2022-07-24T07:19:35;3.20;;;2.90;;
17171;SDS011;8701;50.150;8.756;2022-07-24T07:23:38;5.40;;;3.20;;
17171;SDS011;8701;50.150;8.756;2022-07-24T07:27:40;6.20;;;3.40;;
17171;SDS011;8701;50.150;8.756;2022-07-24T07:31:44;4.30;;;3.28;;
17171;SDS011;8701;50.150;8.756;2022-07-24T07:35:47;3.10;;;2.90;;
17171;SDS011;8701;50.150;8.756;2022-07-24T07:39:50;3.10;;;2.90;;
17171;SDS011;8701;50.150;8.756;2022-07-24T07:43:53;4.93;;;3.37;;
17171;SDS011;8701;50.150;8.756;2022-07-24T07:47:55;5.50;;;3.20;;
17171;SDS011;8701;50.150;8.756;2022-07-24T07:51:59;3.50;;;3.10;;
17171;SDS011;8701;50.150;8.756;2022-07-24T07:56:02;3.73;;;3.30;;
17171;SDS011;8701;50.150;8.756;2022-07-24T08:00:06;3.57;;;3.17;;
17171;SDS011;8701;50.150;8.756;2022-07-24T08:04:12;3.30;;;3.00;;
17171;SDS011;8701;50.150;8.756;2022-07-24T08:08:15;4.20;;;3.33;;
17171;SDS011;8701;50.150;8.756;2022-07-24T08:12:18;3.60;;;3.30;;
17171;SDS011;8701;50.150;8.756;2022-07-24T08:16:20;2.70;;;2.50;;
17171;SDS011;8701;50.150;8.756;2022-07-24T08:20:23;3.50;;;3.20;;
17171;SDS011;8701;50.150;8.756;2022-07-24T08:24:28;3.00;;;2.70;;
17171;SDS011;8701;50.150;8.756;2022-07-24T22:37:47;8.33;;;6.53;;
17171;SDS011;8701;50.150;8.756;2022-07-24T22:41:49;11.33;;;6.60;;
17171;SDS011;8701;50.150;8.756;2022-07-24T22:45:52;9.97;;;7.17;;
17171;SDS011;8701;50.150;8.756;2022-07-24T22:49:56;10.83;;;7.60;;
17171;SDS011;8701;50.150;8.756;2022-07-24T22:54:02;9.53;;;7.33;;
17171;SDS011;8701;50.150;8.756;2022-07-24T22:58:04;8.60;;;7.10;;
17171;SDS011;8701;50.150;8.756;2022-07-24T23:02:08;7.60;;;6.70;;
17171;SDS011;8701;50.150;8.756;2022-07-24T23:06:13;7.57;;;6.77;;
17171;SDS011;8701;50.150;8.756;2022-07-24T23:10:17;7.97;;;6.20;;
17171;SDS011;8701;50.150;8.756;2022-07-24T23:14:20;9.00;;;6.50;;
17171;SDS011;8701;50.150;8.756;2022-07-24T23:18:22;14.23;;;6.43;;
17171;SDS011;8701;50.150;8.756;2022-07-24T23:22:24;7.57;;;6.77;;
17171;SDS011;8701;50.150;8.756;2022-07-24T23:26:28;10.23;;;7.10;;
17171;SDS011;8701;50.150;8.756;2022-07-24T23:30:31;7.03;;;6.33;;
17171;SDS011;8701;50.150;8.756;2022-07-24T23:34:33;14.83;;;6.90;;
17171;SDS011;8701;50.150;8.756;2022-07-24T23:38:36;13.63;;;6.80;;
17171;SDS011;8701;50.150;8.756;2022-07-24T23:42:39;7.67;;;6.87;;
17171;SDS011;8701;50.150;8.756;2022-07-24T23:46:42;7.60;;;6.30;;
17171;SDS011;8701;50.150;8.756;2022-07-24T23:50:44;8.67;;;7.20;;
17171;SDS011;8701;50.150;8.756;2022-07-24T23:54:46;8.90;;;6.57;;
17171;SDS011;8701;50.150;8.756;2022-07-24T23:58:50;10.60;;;7.33;;
